FranceFixed distance
La SaintéLyon
30 Nov – 1 Dec2024
Distance
82km
Finishers
6,2495,534 men704 women
Winning time
5:52:21h
Median pace
6.86km/h
Pace distribution
6,238 finishers · 4.62–13.96 km/h · mean 7.02
Every finisher ran the same 82 km course, so these paces are directly comparable.
Histogram of finisher pace. 6,238 finishers ranged from 4.62 to 13.96 kilometres per hour, with a mean of 7.02 and a median of 6.86. The busiest band is 6.5 to 7.0 kilometres per hour, with 1,188 finishers.
Results
Ranks 1,851–1,900 of 6,238
| Rank | Runner | Time | Pace | Cat. | Placing |
|---|---|---|---|---|---|
| 1855 | Priere, SamuelFranceMan Ouirun Larochelle | 10:56:39h | 7.49 | M40 | 1750th M · 218th M40 |
| 1856 | Villemot, PatrickFranceMan | 10:56:46h | 7.49 | M55 | 1751st M · 21st M55 |
| 1857 | Suzon, OlivierFranceMan *Villeurbanne | 10:56:50h | 7.49 | M23 | 1752nd M · 910th M23 |
| 1858 | Thoumazeau, CorentinFranceMan *Le Mans | 10:56:52h | 7.49 | M23 | 1753rd M · 911th M23 |
| 1859 | Vinauger, FlorianFranceMan *Lyon | 10:56:58h | 7.49 | M23 | 1754th M · 912th M23 |
| 1860 | Beranger, AntoninFranceMan *Tours | 10:57:00h | 7.49 | M45 | 1755th M · 123rd M45 |
| 1861 | Boiciuc, IoanRomaniaMan | 10:57:03h | 7.49 | M35 | 1756th M · 277th M35 |
| 1862 | Fauconnet, GregoireFranceMan Enjoy Your Run | 10:57:05h | 7.49 | M45 | 1757th M · 124th M45 |
| 1862 | Baillieux, FrancoisBelgiumMan *Woluwe-Saint-Pierre | 10:57:05h | 7.49 | M40 | 1757th M · 219th M40 |
| 1864 | Vagogne, BenoitFranceMan *Lyon | 10:57:08h | 7.49 | M23 | 1759th M · 913th M23 |
| 1864 | Giraud, MatthieuFranceMan | 10:57:08h | 7.49 | M35 | 1759th M · 278th M35 |
| 1866 | Bouvier, DanielFranceMan | 10:57:10h | 7.49 | M40 | 1761st M · 220th M40 |
| 1867 | Barcella, HerveFranceMan CRU Chapellois | 10:57:24h | 7.48 | M50 | 1762nd M · 62nd M50 |
| 1867 | Aubague, RaphaelFranceMan CRU Chapellois | 10:57:24h | 7.48 | M50 | 1762nd M · 62nd M50 |
| 1869 | Besnard, RenaudFranceMan *Genève | 10:57:27h | 7.48 | M35 | 1764th M · 279th M35 |
| 1870 | Charlot, DenisFranceMan | 10:57:28h | 7.48 | M50 | 1765th M · 64th M50 |
| 1871 | Coudert, RegisFranceMan Footing Souple / Town ... | 10:57:29h | 7.48 | M45 | 1766th M · 125th M45 |
| 1872 | Macarez, GautierFranceMan *Paris | 10:57:30h | 7.48 | M35 | 1767th M · 280th M35 |
| 1872 | Macarez, PaulFranceMan | 10:57:30h | 7.48 | M23 | 1767th M · 914th M23 |
| 1874 | Bazin, NicolasFranceMan DUC Army | 10:57:35h | 7.48 | M23 | 1769th M · 915th M23 |
| 1875 | Abribat, MaximeFranceMan *Sainte-Foy-Lès-Lyon | 10:57:38h | 7.48 | M23 | 1770th M · 916th M23 |
| 1876 | Le Mentec, BerengerFranceMan Guidel BZH | 10:57:40h | 7.48 | M23 | 1771st M · 917th M23 |
| 1877 | Lashermes, MickaelFranceMan Altirun43 | 10:57:42h | 7.48 | M40 | 1772nd M · 221st M40 |
| 1878 | Colin, BrunoFranceMan *La Grand-Croix | 10:57:48h | 7.48 | M45 | 1773rd M · 126th M45 |
| 1879 | Chailley, TimotheeFranceMan | 10:57:49h | 7.48 | MU23 | 1774th M · 132nd MU23 |
| 1880 | Maistret, JamesFranceMan *Saint-Fargeau-Ponthierry | 10:57:50h | 7.48 | MU23 | 1775th M · 133rd MU23 |
| 1881 | Marechal, QuentinFranceMan Chenove Triathlon | 10:57:51h | 7.48 | M23 | 1776th M · 918th M23 |
| 1882 | Levasseur, JonasFranceMan | 10:57:58h | 7.48 | M23 | 1777th M · 919th M23 |
| 1883 | Strach, ValentinFranceMan | 10:58:06h | 7.48 | M23 | 1778th M · 920th M23 |
| 1884 | Chometon, PaulFranceMan *Poisat | 10:58:11h | 7.47 | M45 | 1779th M · 127th M45 |
| 1885 | Prin, FlorianFranceMan | 10:58:21h | 7.47 | M23 | 1780th M · 921st M23 |
| 1886 | Sefrin, LoicFranceMan | 10:58:26h | 7.47 | M23 | 1781st M · 922nd M23 |
| 1887 | Peju, MorganFranceMan | 10:58:29h | 7.47 | M23 | 1782nd M · 923rd M23 |
| 1888 | Godayol, KevinFranceMan | 10:58:30h | 7.47 | M23 | 1783rd M · 924th M23 |
| 1889 | Pourchon, AlexandreFranceMan | 10:58:39h | 7.47 | M40 | 1784th M · 222nd M40 |
| 1890 | Passal, JulianFranceMan *Annecy | 10:58:42h | 7.47 | M35 | 1785th M · 281st M35 |
| 1891 | Coltel, AstridFranceWoman *Flayosc | 10:58:46h | 7.47 | W23 | 106th F · 59th W23 |
| 1891 | Tissot, Jean-CharlesFranceMan *Villeurbanne | 10:58:46h | 7.47 | M35 | 1786th M · 282nd M35 |
| 1893 | Berchot, AdrienFranceMan | 10:58:51h | 7.47 | M23 | 1787th M · 925th M23 |
| 1893 | de Lavenere, GuillaumeFranceMan Cadence | 10:58:51h | 7.47 | M23 | 1787th M · 925th M23 |
| 1895 | Riotte, GuillaumeFranceMan | 10:58:52h | 7.47 | M45 | 1789th M · 128th M45 |
| 1896 | Rigaudon, Jean-MichelFranceMan *Vénissieux | 10:58:55h | 7.47 | M35 | 1790th M · 283rd M35 |
| 1897 | Lafosse Marin, StevenFranceMan | 10:59:01h | 7.47 | M40 | 1791st M · 223rd M40 |
| 1897 | Bazier, FrancoisFranceMan | 10:59:01h | 7.47 | M35 | 1791st M · 284th M35 |
| 1899 | Royeau, AurelienFranceMan VR2 | 10:59:04h | 7.46 | M45 | 1793rd M · 129th M45 |
| 1900 | Meyer, AntoineFranceMan *Clermont-Ferrand | 10:59:07h | 7.46 | M23 | 1794th M · 927th M23 |
| 1901 | Meuzard, RemiFranceMan | 10:59:11h | 7.46 | M23 | 1795th M · 928th M23 |
| 1902 | Ouillon, LucasFranceMan | 10:59:12h | 7.46 | M23 | 1796th M · 929th M23 |
| 1903 | Simoncelli, QuentinFranceMan BRS | 10:59:14h | 7.46 | M23 | 1797th M · 930th M23 |
| 1903 | Besnard, KylannFranceMan | 10:59:14h | 7.46 | M23 | 1797th M · 930th M23 |
- 1855Priere, SamuelFranceManOuirun Larochelle1750th M · 218th M40Time10:56:39hPace7.49Cat.M40
- 1856Villemot, PatrickFranceMan1751st M · 21st M55Time10:56:46hPace7.49Cat.M55
- 1857Suzon, OlivierFranceMan*Villeurbanne1752nd M · 910th M23Time10:56:50hPace7.49Cat.M23
- 1858Thoumazeau, CorentinFranceMan*Le Mans1753rd M · 911th M23Time10:56:52hPace7.49Cat.M23
- 1859Vinauger, FlorianFranceMan*Lyon1754th M · 912th M23Time10:56:58hPace7.49Cat.M23
- 1860Beranger, AntoninFranceMan*Tours1755th M · 123rd M45Time10:57:00hPace7.49Cat.M45
- 1861Boiciuc, IoanRomaniaMan1756th M · 277th M35Time10:57:03hPace7.49Cat.M35
- 1862Fauconnet, GregoireFranceManEnjoy Your Run1757th M · 124th M45Time10:57:05hPace7.49Cat.M45
- 1862Baillieux, FrancoisBelgiumMan*Woluwe-Saint-Pierre1757th M · 219th M40Time10:57:05hPace7.49Cat.M40
- 1864Vagogne, BenoitFranceMan*Lyon1759th M · 913th M23Time10:57:08hPace7.49Cat.M23
- 1864Giraud, MatthieuFranceMan1759th M · 278th M35Time10:57:08hPace7.49Cat.M35
- 1866Bouvier, DanielFranceMan1761st M · 220th M40Time10:57:10hPace7.49Cat.M40
- 1867Barcella, HerveFranceManCRU Chapellois1762nd M · 62nd M50Time10:57:24hPace7.48Cat.M50
- 1867Aubague, RaphaelFranceManCRU Chapellois1762nd M · 62nd M50Time10:57:24hPace7.48Cat.M50
- 1869Besnard, RenaudFranceMan*Genève1764th M · 279th M35Time10:57:27hPace7.48Cat.M35
- 1870Charlot, DenisFranceMan1765th M · 64th M50Time10:57:28hPace7.48Cat.M50
- 1871Coudert, RegisFranceManFooting Souple / Town ...1766th M · 125th M45Time10:57:29hPace7.48Cat.M45
- 1872Macarez, GautierFranceMan*Paris1767th M · 280th M35Time10:57:30hPace7.48Cat.M35
- 1872Macarez, PaulFranceMan1767th M · 914th M23Time10:57:30hPace7.48Cat.M23
- 1874Bazin, NicolasFranceManDUC Army1769th M · 915th M23Time10:57:35hPace7.48Cat.M23
- 1875Abribat, MaximeFranceMan*Sainte-Foy-Lès-Lyon1770th M · 916th M23Time10:57:38hPace7.48Cat.M23
- 1876Le Mentec, BerengerFranceManGuidel BZH1771st M · 917th M23Time10:57:40hPace7.48Cat.M23
- 1877Lashermes, MickaelFranceManAltirun431772nd M · 221st M40Time10:57:42hPace7.48Cat.M40
- 1878Colin, BrunoFranceMan*La Grand-Croix1773rd M · 126th M45Time10:57:48hPace7.48Cat.M45
- 1879Chailley, TimotheeFranceMan1774th M · 132nd MU23Time10:57:49hPace7.48Cat.MU23
- 1880Maistret, JamesFranceMan*Saint-Fargeau-Ponthierry1775th M · 133rd MU23Time10:57:50hPace7.48Cat.MU23
- 1881Marechal, QuentinFranceManChenove Triathlon1776th M · 918th M23Time10:57:51hPace7.48Cat.M23
- 1882Levasseur, JonasFranceMan1777th M · 919th M23Time10:57:58hPace7.48Cat.M23
- 1883Strach, ValentinFranceMan1778th M · 920th M23Time10:58:06hPace7.48Cat.M23
- 1884Chometon, PaulFranceMan*Poisat1779th M · 127th M45Time10:58:11hPace7.47Cat.M45
- 1885Prin, FlorianFranceMan1780th M · 921st M23Time10:58:21hPace7.47Cat.M23
- 1886Sefrin, LoicFranceMan1781st M · 922nd M23Time10:58:26hPace7.47Cat.M23
- 1887Peju, MorganFranceMan1782nd M · 923rd M23Time10:58:29hPace7.47Cat.M23
- 1888Godayol, KevinFranceMan1783rd M · 924th M23Time10:58:30hPace7.47Cat.M23
- 1889Pourchon, AlexandreFranceMan1784th M · 222nd M40Time10:58:39hPace7.47Cat.M40
- 1890Passal, JulianFranceMan*Annecy1785th M · 281st M35Time10:58:42hPace7.47Cat.M35
- 1891Coltel, AstridFranceWoman*Flayosc106th F · 59th W23Time10:58:46hPace7.47Cat.W23
- 1891Tissot, Jean-CharlesFranceMan*Villeurbanne1786th M · 282nd M35Time10:58:46hPace7.47Cat.M35
- 1893Berchot, AdrienFranceMan1787th M · 925th M23Time10:58:51hPace7.47Cat.M23
- 1893de Lavenere, GuillaumeFranceManCadence1787th M · 925th M23Time10:58:51hPace7.47Cat.M23
- 1895Riotte, GuillaumeFranceMan1789th M · 128th M45Time10:58:52hPace7.47Cat.M45
- 1896Rigaudon, Jean-MichelFranceMan*Vénissieux1790th M · 283rd M35Time10:58:55hPace7.47Cat.M35
- 1897Lafosse Marin, StevenFranceMan1791st M · 223rd M40Time10:59:01hPace7.47Cat.M40
- 1897Bazier, FrancoisFranceMan1791st M · 284th M35Time10:59:01hPace7.47Cat.M35
- 1899Royeau, AurelienFranceManVR21793rd M · 129th M45Time10:59:04hPace7.46Cat.M45
- 1900Meyer, AntoineFranceMan*Clermont-Ferrand1794th M · 927th M23Time10:59:07hPace7.46Cat.M23
- 1901Meuzard, RemiFranceMan1795th M · 928th M23Time10:59:11hPace7.46Cat.M23
- 1902Ouillon, LucasFranceMan1796th M · 929th M23Time10:59:12hPace7.46Cat.M23
- 1903Simoncelli, QuentinFranceManBRS1797th M · 930th M23Time10:59:14hPace7.46Cat.M23
- 1903Besnard, KylannFranceMan1797th M · 930th M23Time10:59:14hPace7.46Cat.M23
Showing ranks 1,851–1,900 of 6,238